Time;durP1;ratioP1;P1;durP2;ratioP2;P2;SDS_P1;SDS_P2;PMS_P1;PMS_P2;Temp;Humidity;BMP_temperature;BMP_pressure;BME280_temperature;BME280_humidity;BME280_pressure;Samples;Min_cycle;Max_cycle;Signal;HPM_P1;HPM_P2
2020/12/29 00:01:56;;;;;;;2.37;2.17;;;4.40;99.90;;;;;;4976347;28;20479;-94
2020/12/29 00:04:25;;;;;;;2.33;2.07;;;4.50;99.90;;;;;;4967055;28;20510;-93
2020/12/29 00:06:52;;;;;;;2.23;2.03;;;4.60;99.90;;;;;;4974274;28;20994;-93
2020/12/29 00:09:55;;;;;;;3.33;2.30;;;4.60;99.90;;;;;;4976878;28;20454;-94
2020/12/29 00:12:22;;;;;;;2.00;1.90;;;4.50;99.90;;;;;;4954448;28;20543;-93
2020/12/29 00:14:48;;;;;;;2.13;1.60;;;4.30;99.90;;;;;;4976884;28;20534;-93
2020/12/29 00:17:14;;;;;;;1.50;1.40;;;4.20;99.90;;;;;;4976128;28;20455;-92
2020/12/29 00:19:50;;;;;;;2.27;2.00;;;4.20;99.90;;;;;;4976192;28;20447;-94
2020/12/29 00:22:40;;;;;;;2.90;1.77;;;4.20;99.90;;;;;;4976174;28;20477;-94
2020/12/29 00:25:07;;;;;;;2.63;1.63;;;4.20;99.90;;;;;;4968190;28;21004;-92
2020/12/29 00:27:33;;;;;;;2.00;1.80;;;4.10;99.90;;;;;;4975664;28;21270;-94
2020/12/29 00:30:03;;;;;;;1.40;1.10;;;4.20;99.90;;;;;;4976045;28;20448;-94
2020/12/29 00:32:29;;;;;;;1.77;1.67;;;4.20;99.90;;;;;;4975505;28;20467;-94
2020/12/29 00:34:57;;;;;;;1.90;1.60;;;4.30;99.90;;;;;;4975610;28;20456;-93
2020/12/29 00:37:50;;;;;;;1.73;1.40;;;4.20;99.90;;;;;;4968437;28;20479;-94
2020/12/29 00:40:17;;;;;;;3.00;1.70;;;4.20;99.90;;;;;;4968839;28;20530;-94
2020/12/29 00:43:13;;;;;;;2.17;1.47;;;4.20;99.90;;;;;;4977743;28;20467;-93
2020/12/29 00:45:40;;;;;;;1.10;1.00;;;4.20;99.90;;;;;;4964389;28;20868;-94
2020/12/29 00:48:06;;;;;;;1.57;1.33;;;4.20;99.90;;;;;;4975720;28;20444;-95
2020/12/29 00:50:32;;;;;;;1.67;1.30;;;4.30;99.90;;;;;;4975109;28;20436;-94
2020/12/29 00:53:04;;;;;;;1.00;0.77;;;4.30;99.90;;;;;;4975389;28;20455;-94
2020/12/29 00:55:32;;;;;;;0.80;0.73;;;4.40;99.90;;;;;;4975615;28;20460;-94
2020/12/29 00:58:21;;;;;;;0.80;0.70;;;4.40;99.90;;;;;;4975803;28;20475;-92
2020/12/29 01:00:47;;;;;;;0.90;0.80;;;4.50;99.90;;;;;;4958863;28;20487;-92
2020/12/29 01:03:13;;;;;;;1.10;0.90;;;4.60;99.90;;;;;;4975961;28;20455;-93
2020/12/29 01:05:40;;;;;;;1.20;0.77;;;4.60;99.90;;;;;;4976114;28;20456;-93
2020/12/29 01:08:06;;;;;;;0.80;0.60;;;4.70;99.90;;;;;;4972001;28;20464;-93
2020/12/29 01:10:33;;;;;;;1.30;1.07;;;4.70;99.90;;;;;;4980186;28;20448;-93
2020/12/29 01:13:00;;;;;;;0.80;0.80;;;4.70;99.90;;;;;;4975496;28;20480;-93
2020/12/29 01:15:26;;;;;;;1.73;0.87;;;4.70;99.90;;;;;;4974931;28;20436;-92
2020/12/29 01:17:55;;;;;;;0.70;0.60;;;4.60;99.90;;;;;;4969212;28;20530;-93
2020/12/29 01:20:24;;;;;;;0.80;0.63;;;4.70;99.90;;;;;;4975829;28;20554;-94
2020/12/29 01:22:51;;;;;;;0.87;0.70;;;4.60;99.90;;;;;;4982394;28;20545;-94
2020/12/29 01:25:17;;;;;;;0.60;0.60;;;4.50;99.90;;;;;;4988970;28;20455;-94
2020/12/29 01:27:44;;;;;;;1.03;0.70;;;4.50;99.90;;;;;;4993113;28;20470;-94
2020/12/29 01:30:11;;;;;;;0.70;0.70;;;4.40;99.90;;;;;;4984183;28;20507;-95
2020/12/29 01:32:37;;;;;;;1.00;0.90;;;4.40;99.90;;;;;;4975225;28;20479;-93
2020/12/29 01:35:04;;;;;;;2.47;0.70;;;4.40;99.90;;;;;;4974617;28;20440;-93
2020/12/29 01:37:31;;;;;;;0.70;0.60;;;4.40;99.90;;;;;;4974703;28;20436;-93
2020/12/29 01:39:59;;;;;;;0.60;0.50;;;4.40;99.90;;;;;;4974575;28;20455;-94
2020/12/29 01:42:25;;;;;;;1.13;0.70;;;4.40;99.90;;;;;;4974576;28;20483;-94
2020/12/29 01:44:53;;;;;;;1.73;0.90;;;4.40;99.90;;;;;;4974491;28;20451;-94
2020/12/29 01:47:21;;;;;;;0.80;0.60;;;4.40;99.90;;;;;;4974882;28;20937;-93
2020/12/29 01:49:48;;;;;;;0.87;0.77;;;4.50;99.90;;;;;;4974785;28;20462;-95
2020/12/29 01:52:14;;;;;;;0.87;0.77;;;4.60;99.90;;;;;;4975232;28;20530;-95
2020/12/29 01:54:41;;;;;;;1.10;0.77;;;4.50;99.90;;;;;;4977236;28;20871;-95
2020/12/29 01:57:07;;;;;;;0.80;0.60;;;4.60;99.90;;;;;;4976879;28;20455;-94
2020/12/29 01:59:39;;;;;;;0.90;0.70;;;4.60;99.90;;;;;;4978054;28;20458;-94
2020/12/29 02:02:10;;;;;;;1.00;0.73;;;4.60;99.90;;;;;;4974307;28;20588;-93
2020/12/29 02:04:36;;;;;;;1.17;0.67;;;4.60;99.90;;;;;;4974115;28;20448;-93
2020/12/29 02:07:03;;;;;;;1.00;0.90;;;4.70;99.90;;;;;;4973988;28;20455;-93
2020/12/29 02:09:29;;;;;;;0.70;0.53;;;4.60;99.90;;;;;;4974107;28;20464;-95
2020/12/29 02:11:56;;;;;;;1.03;0.60;;;4.70;99.90;;;;;;4973665;28;20992;-95
2020/12/29 02:14:22;;;;;;;0.70;0.60;;;4.70;99.90;;;;;;4974583;28;20974;-93
2020/12/29 02:16:48;;;;;;;0.87;0.80;;;4.70;99.90;;;;;;4974375;28;20456;-96
2020/12/29 02:19:15;;;;;;;0.93;0.73;;;4.70;99.90;;;;;;4974178;28;20460;-95
2020/12/29 02:21:47;;;;;;;1.10;0.80;;;4.70;99.90;;;;;;4973824;28;20495;-93
2020/12/29 02:24:15;;;;;;;0.77;0.67;;;4.70;99.90;;;;;;4957092;28;21130;-93
2020/12/29 02:26:41;;;;;;;2.80;0.90;;;4.70;99.90;;;;;;4965288;28;20511;-95
2020/12/29 02:29:52;;;;;;;0.77;0.77;;;4.80;99.90;;;;;;4958009;28;20941;-93
2020/12/29 02:32:22;;;;;;;1.00;0.60;;;4.90;99.90;;;;;;4973549;28;20476;-93
2020/12/29 02:34:52;;;;;;;1.00;0.70;;;4.90;99.90;;;;;;4973532;28;20504;-95
2020/12/29 02:37:20;;;;;;;0.80;0.73;;;4.90;99.90;;;;;;4973989;28;20505;-93
2020/12/29 02:39:52;;;;;;;1.20;0.70;;;4.90;99.90;;;;;;4974194;28;20437;-94
2020/12/29 02:46:01;;;;;;;0.70;0.50;;;5.00;99.90;;;;;;4960501;28;20444;-94
2020/12/29 02:52:34;;;;;;;0.80;0.70;;;5.20;99.90;;;;;;4958375;28;20468;-93
2020/12/29 02:55:01;;;;;;;1.03;0.60;;;5.40;99.90;;;;;;4950662;29;20493;-93
2020/12/29 03:00:22;;;;;;;0.60;0.40;;;5.50;99.90;;;;;;4947049;28;20484;-95
2020/12/29 03:02:48;;;;;;;0.50;0.40;;;5.50;99.90;;;;;;4980726;28;20444;-93
2020/12/29 03:09:42;;;;;;;0.60;0.40;;;5.50;99.90;;;;;;4940554;28;20458;-91
2020/12/29 03:13:14;;;;;;;;;;;;;;;;;;;;;
2020/12/29 03:16:02;;;;;;;0.93;0.40;;;5.50;99.90;;;;;;4973311;28;20434;-92
2020/12/29 03:21:45;;;;;;;0.80;0.43;;;5.30;99.90;;;;;;4966760;28;20485;-95
2020/12/29 03:24:12;;;;;;;0.57;0.40;;;5.30;99.90;;;;;;4981800;28;20436;-93
2020/12/29 03:27:16;;;;;;;0.80;0.47;;;5.20;99.90;;;;;;4979469;28;20446;-94
2020/12/29 03:29:45;;;;;;;0.50;0.30;;;5.10;99.90;;;;;;4975193;28;20933;-92
2020/12/29 03:32:14;;;;;;;2.60;0.60;;;5.20;99.90;;;;;;4977440;28;21044;-92
2020/12/29 03:37:59;;;;;;;0.80;0.40;;;5.20;99.90;;;;;;4973778;28;20447;-93
2020/12/29 03:43:44;;;;;;;0.80;0.50;;;5.10;99.90;;;;;;4972875;28;20432;-93
2020/12/29 03:47:00;;;;;;;0.60;0.40;;;5.10;99.90;;;;;;4976871;28;20448;-94
2020/12/29 04:01:04;;;;;;;0.97;0.40;;;4.90;99.90;;;;;;4968707;28;20487;-93
2020/12/29 04:04:27;;;;;;;0.80;0.57;;;4.90;99.90;;;;;;4939547;29;20465;-93
2020/12/29 04:06:54;;;;;;;0.83;0.53;;;5.00;99.90;;;;;;4909615;29;20514;-93
2020/12/29 04:09:29;;;;;;;1.00;0.40;;;4.90;99.90;;;;;;4919035;29;20464;-95
2020/12/29 04:18:12;;;;;;;0.50;0.50;;;5.00;99.90;;;;;;4895366;29;20830;-93
2020/12/29 04:24:48;;;;;;;1.07;0.40;;;5.10;99.90;;;;;;4922176;28;20973;-95
2020/12/29 04:27:18;;;;;;;1.10;0.60;;;5.00;99.90;;;;;;4875321;29;20533;-95
2020/12/29 04:29:44;;;;;;;1.43;0.50;;;5.10;99.90;;;;;;4861359;29;20458;-94
2020/12/29 04:32:25;;;;;;;1.67;0.77;;;5.10;99.90;;;;;;4860224;29;20797;-94
2020/12/29 04:34:52;;;;;;;2.30;0.70;;;5.10;99.90;;;;;;4887751;29;20468;-95
2020/12/29 04:37:19;;;;;;;3.93;0.70;;;5.00;99.90;;;;;;4941261;29;20440;-94
2020/12/29 04:39:45;;;;;;;0.77;0.57;;;5.00;99.90;;;;;;4941305;29;20454;-94
2020/12/29 04:42:12;;;;;;;0.63;0.40;;;5.00;99.90;;;;;;4938489;29;20489;-94
2020/12/29 04:44:39;;;;;;;0.67;0.47;;;5.00;99.90;;;;;;4937415;29;20460;-94
2020/12/29 04:47:07;;;;;;;0.50;0.40;;;5.00;99.90;;;;;;4947098;29;20503;-94
2020/12/29 04:49:34;;;;;;;1.53;0.73;;;5.10;99.90;;;;;;4937504;29;20533;-95
2020/12/29 04:52:04;;;;;;;0.93;0.57;;;5.10;99.90;;;;;;4941668;28;20474;-94
2020/12/29 04:54:33;;;;;;;1.00;0.53;;;5.10;99.90;;;;;;4939192;29;20485;-93
2020/12/29 04:57:01;;;;;;;0.93;0.60;;;5.20;99.90;;;;;;4945585;29;20480;-93
2020/12/29 04:59:28;;;;;;;0.80;0.40;;;5.20;99.90;;;;;;4938972;29;20556;-93
2020/12/29 05:01:55;;;;;;;1.33;0.70;;;5.20;99.90;;;;;;4953037;28;20584;-93
2020/12/29 05:04:22;;;;;;;0.67;0.40;;;5.10;99.90;;;;;;4953839;29;20456;-94
2020/12/29 05:06:48;;;;;;;0.77;0.50;;;5.00;99.90;;;;;;4937129;29;20457;-93
2020/12/29 05:09:17;;;;;;;1.27;0.70;;;4.90;99.90;;;;;;4937296;29;20468;-94
2020/12/29 05:11:44;;;;;;;0.60;0.60;;;4.90;99.90;;;;;;4939152;29;20540;-93
2020/12/29 05:14:10;;;;;;;0.80;0.53;;;4.90;99.90;;;;;;4937111;29;20483;-92
2020/12/29 05:16:37;;;;;;;1.73;0.70;;;4.80;99.90;;;;;;4940454;29;20457;-93
2020/12/29 05:19:07;;;;;;;1.60;0.70;;;4.70;99.90;;;;;;4947909;29;20441;-93
2020/12/29 05:21:36;;;;;;;0.90;0.90;;;4.70;99.90;;;;;;4936853;29;20490;-93
2020/12/29 05:24:10;;;;;;;1.33;0.63;;;4.70;99.90;;;;;;4937400;29;20437;-93
2020/12/29 05:26:38;;;;;;;3.23;0.80;;;4.80;99.90;;;;;;4941740;29;20455;-94
2020/12/29 05:29:05;;;;;;;1.83;0.60;;;4.80;99.90;;;;;;4947777;29;20461;-94
2020/12/29 05:31:33;;;;;;;1.00;0.50;;;4.80;99.90;;;;;;4948691;28;20472;-93
2020/12/29 05:33:59;;;;;;;2.00;0.60;;;4.80;99.90;;;;;;4941125;29;20440;-94
2020/12/29 05:36:26;;;;;;;0.90;0.60;;;4.90;99.90;;;;;;4940190;29;20450;-93
2020/12/29 05:38:56;;;;;;;4.00;0.87;;;4.80;99.90;;;;;;4956900;29;20500;-93
2020/12/29 05:41:22;;;;;;;1.40;1.00;;;4.80;99.90;;;;;;4956272;28;20493;-94
2020/12/29 05:44:00;;;;;;;1.90;0.50;;;4.90;99.90;;;;;;4937071;29;20466;-94
2020/12/29 05:46:29;;;;;;;1.90;0.50;;;4.90;99.90;;;;;;4938664;29;20534;-93
2020/12/29 05:48:55;;;;;;;1.10;0.57;;;5.00;99.90;;;;;;4959609;29;20472;-93
2020/12/29 05:51:23;;;;;;;0.83;0.50;;;5.10;99.90;;;;;;4963066;28;20473;-93
2020/12/29 05:53:50;;;;;;;1.47;0.90;;;5.10;99.90;;;;;;4962527;29;20445;-94
2020/12/29 05:56:17;;;;;;;0.93;0.50;;;5.10;99.90;;;;;;4935957;29;20449;-95
2020/12/29 05:58:43;;;;;;;0.50;0.30;;;5.20;99.90;;;;;;4940142;29;20902;-94
2020/12/29 06:01:10;;;;;;;1.10;0.57;;;5.20;99.90;;;;;;4936241;29;20581;-92
2020/12/29 06:03:38;;;;;;;0.50;0.43;;;5.20;99.90;;;;;;4953284;29;20453;-95
2020/12/29 06:06:07;;;;;;;0.50;0.40;;;5.20;99.90;;;;;;4948843;29;20454;-94
2020/12/29 06:08:36;;;;;;;1.77;0.60;;;5.20;99.90;;;;;;4936327;29;20993;-94
2020/12/29 06:11:05;;;;;;;3.07;0.60;;;5.10;99.90;;;;;;4935862;29;20477;-94
2020/12/29 06:13:38;;;;;;;0.90;0.60;;;5.10;99.90;;;;;;4940382;29;20484;-94
2020/12/29 06:16:04;;;;;;;1.63;0.70;;;5.10;99.90;;;;;;4947982;29;20474;-93
2020/12/29 06:18:36;;;;;;;0.73;0.70;;;5.10;99.90;;;;;;4951912;29;20468;-92
2020/12/29 06:21:05;;;;;;;2.30;0.60;;;5.10;99.90;;;;;;4936729;29;20509;-94
2020/12/29 06:23:36;;;;;;;1.10;0.57;;;5.00;99.90;;;;;;4949105;28;20477;-94
2020/12/29 06:26:06;;;;;;;0.70;0.50;;;5.00;99.90;;;;;;4948298;29;20474;-94
2020/12/29 06:28:41;;;;;;;0.70;0.43;;;5.00;99.90;;;;;;4943798;29;20453;-92
2020/12/29 06:31:10;;;;;;;1.37;0.80;;;4.90;99.90;;;;;;4938643;29;20528;-94
2020/12/29 06:33:39;;;;;;;1.43;0.97;;;4.90;99.90;;;;;;4955026;29;20433;-94
2020/12/29 06:36:09;;;;;;;1.63;0.87;;;4.90;99.90;;;;;;4947911;29;20585;-95
2020/12/29 06:38:38;;;;;;;0.80;0.70;;;4.90;99.90;;;;;;4950483;29;20497;-95
2020/12/29 06:41:07;;;;;;;1.80;0.60;;;4.90;99.90;;;;;;4953133;28;20510;-93
2020/12/29 06:43:34;;;;;;;1.00;0.60;;;4.90;99.90;;;;;;4955182;29;20507;-94
2020/12/29 06:46:11;;;;;;;1.37;0.60;;;5.00;99.90;;;;;;4956656;29;20453;-93
2020/12/29 06:48:38;;;;;;;1.07;0.60;;;5.00;99.90;;;;;;4953514;29;20429;-93
2020/12/29 06:51:11;;;;;;;0.73;0.63;;;5.00;99.90;;;;;;4948497;28;20481;-93
2020/12/29 06:53:39;;;;;;;2.47;0.97;;;5.00;99.90;;;;;;4959474;29;20539;-94
2020/12/29 06:56:13;;;;;;;3.10;0.83;;;5.10;99.90;;;;;;4954667;28;20453;-93
2020/12/29 06:58:39;;;;;;;2.30;0.70;;;5.10;99.90;;;;;;4948738;29;20452;-95
2020/12/29 07:01:23;;;;;;;1.00;0.63;;;5.10;99.90;;;;;;4941978;29;20480;-93
2020/12/29 07:04:00;;;;;;;4.17;1.10;;;5.10;99.90;;;;;;4959932;28;20436;-92
2020/12/29 07:06:28;;;;;;;0.90;0.60;;;5.00;99.90;;;;;;4960248;29;20475;-94
2020/12/29 07:09:00;;;;;;;1.50;0.53;;;5.10;99.90;;;;;;4943121;29;20449;-94
2020/12/29 07:11:26;;;;;;;0.80;0.60;;;5.00;99.90;;;;;;4949721;28;20449;-92
2020/12/29 07:13:53;;;;;;;0.93;0.63;;;5.00;99.90;;;;;;4941762;29;20461;-93
2020/12/29 07:16:25;;;;;;;0.80;0.50;;;5.00;99.90;;;;;;4950088;28;20895;-93
2020/12/29 07:19:07;;;;;;;1.37;0.83;;;5.10;99.90;;;;;;4924443;29;20509;-93
2020/12/29 07:21:34;;;;;;;1.90;0.83;;;5.10;99.90;;;;;;4941008;29;20493;-94
2020/12/29 07:24:04;;;;;;;1.77;1.03;;;5.10;99.90;;;;;;4941510;29;20464;-93
2020/12/29 07:26:36;;;;;;;2.20;0.73;;;5.20;99.90;;;;;;4948006;28;20460;-93
2020/12/29 07:29:05;;;;;;;2.30;0.90;;;5.20;99.90;;;;;;4945427;29;21006;-92
2020/12/29 07:31:39;;;;;;;0.93;0.57;;;5.10;99.90;;;;;;4950070;28;20970;-93
2020/12/29 07:34:13;;;;;;;1.57;0.90;;;5.20;99.90;;;;;;4960869;28;20436;-93
2020/12/29 07:36:43;;;;;;;2.20;0.90;;;5.20;99.90;;;;;;4952861;28;20433;-91
2020/12/29 07:39:12;;;;;;;1.73;0.93;;;5.20;99.90;;;;;;4949686;29;20445;-92
2020/12/29 07:41:39;;;;;;;3.23;1.00;;;5.20;99.90;;;;;;4948844;29;20481;-94
2020/12/29 07:44:05;;;;;;;3.73;0.97;;;5.20;99.90;;;;;;4956451;28;20456;-92
2020/12/29 07:46:32;;;;;;;1.33;0.70;;;5.20;99.90;;;;;;4947052;29;20449;-92
2020/12/29 07:48:59;;;;;;;2.80;1.03;;;5.20;99.90;;;;;;4946069;29;20450;-94
2020/12/29 07:51:26;;;;;;;1.63;0.83;;;5.20;99.90;;;;;;4948252;28;20462;-92
2020/12/29 07:53:52;;;;;;;3.83;0.90;;;5.20;99.90;;;;;;4952010;28;20452;-94
2020/12/29 07:56:19;;;;;;;1.47;0.80;;;5.30;99.90;;;;;;4945404;28;20454;-89
2020/12/29 07:58:45;;;;;;;1.63;1.20;;;5.30;99.90;;;;;;4946908;28;20460;-89
2020/12/29 08:01:12;;;;;;;3.13;1.20;;;5.30;99.90;;;;;;4945108;28;20488;-89
2020/12/29 08:03:39;;;;;;;3.03;0.80;;;5.30;99.90;;;;;;4952094;28;21034;-91
2020/12/29 08:06:13;;;;;;;0.93;0.80;;;5.30;99.90;;;;;;4946506;29;20477;-90
2020/12/29 08:08:41;;;;;;;2.07;0.80;;;5.30;99.90;;;;;;4966080;28;20437;-89
2020/12/29 08:11:08;;;;;;;1.83;1.00;;;5.30;99.90;;;;;;4950406;29;20524;-90
2020/12/29 08:13:35;;;;;;;1.40;0.73;;;5.50;99.90;;;;;;4945528;28;20502;-89
2020/12/29 08:16:01;;;;;;;0.90;0.77;;;5.50;99.90;;;;;;4943673;29;20441;-89
2020/12/29 08:18:27;;;;;;;1.40;0.80;;;5.50;99.90;;;;;;4946171;28;20445;-90
2020/12/29 08:20:56;;;;;;;1.23;0.90;;;5.60;99.90;;;;;;4944576;29;20501;-89
2020/12/29 08:23:25;;;;;;;1.53;0.70;;;5.50;99.90;;;;;;4944696;28;20951;-90
2020/12/29 08:25:54;;;;;;;2.43;1.10;;;5.60;99.90;;;;;;4947052;29;20454;-93
2020/12/29 08:28:23;;;;;;;2.07;1.00;;;5.60;99.90;;;;;;4978555;23;20434;-90
2020/12/29 08:30:49;;;;;;;1.80;1.07;;;5.60;99.90;;;;;;4962176;28;21019;-91
2020/12/29 08:33:19;;;;;;;1.43;0.80;;;5.70;99.90;;;;;;4963224;28;21006;-90
2020/12/29 08:35:47;;;;;;;1.53;0.90;;;5.70;99.90;;;;;;4963493;28;20421;-90
2020/12/29 08:38:30;;;;;;;1.20;0.60;;;5.70;99.90;;;;;;4963516;28;20452;-89
2020/12/29 08:41:06;;;;;;;1.63;0.93;;;5.70;99.90;;;;;;4966736;28;20483;-90
2020/12/29 08:43:35;;;;;;;2.37;1.50;;;5.80;99.90;;;;;;4963262;28;20437;-91
2020/12/29 08:46:03;;;;;;;2.57;1.80;;;5.80;99.90;;;;;;4963669;28;20445;-89
2020/12/29 08:48:29;;;;;;;2.83;0.93;;;5.80;99.90;;;;;;4964605;28;20532;-90
2020/12/29 08:50:55;;;;;;;2.10;1.10;;;5.70;99.90;;;;;;4964448;28;20444;-93
2020/12/29 08:53:24;;;;;;;2.67;0.80;;;5.70;99.90;;;;;;4967923;28;20944;-94
2020/12/29 08:55:51;;;;;;;1.30;0.63;;;5.60;99.90;;;;;;4960832;28;20452;-95
2020/12/29 08:58:24;;;;;;;2.83;1.03;;;5.60;99.90;;;;;;4960046;28;20536;-95
2020/12/29 09:00:51;;;;;;;5.50;0.90;;;5.60;99.90;;;;;;4938641;29;20481;-93
2020/12/29 09:03:22;;;;;;;1.37;1.17;;;5.60;99.90;;;;;;4953782;28;20503;-94
2020/12/29 09:05:53;;;;;;;1.23;0.90;;;5.50;99.90;;;;;;4966079;28;20453;-95
2020/12/29 09:08:26;;;;;;;3.70;1.00;;;5.50;99.90;;;;;;4965979;28;21003;-88
2020/12/29 09:11:07;;;;;;;1.37;0.90;;;5.50;99.90;;;;;;4961317;28;20447;-91
2020/12/29 09:13:34;;;;;;;2.90;1.93;;;5.60;99.90;;;;;;4961911;28;20528;-88
2020/12/29 09:16:09;;;;;;;1.20;1.10;;;5.60;99.90;;;;;;4961990;28;20809;-91
2020/12/29 09:18:40;;;;;;;1.37;1.27;;;5.60;99.90;;;;;;4962963;28;20444;-88
2020/12/29 09:21:19;;;;;;;2.80;1.37;;;5.70;99.90;;;;;;4961900;28;20523;-93
2020/12/29 09:23:45;;;;;;;2.40;1.23;;;5.70;99.90;;;;;;4962168;28;20976;-94
2020/12/29 09:26:11;;;;;;;1.67;1.03;;;5.70;99.90;;;;;;4971003;28;21142;-93
2020/12/29 09:28:38;;;;;;;1.90;0.80;;;5.70;99.90;;;;;;4956470;28;20523;-93
2020/12/29 09:31:07;;;;;;;0.83;0.70;;;5.70;99.90;;;;;;4962456;28;20453;-93
2020/12/29 09:33:35;;;;;;;1.03;0.93;;;5.70;99.90;;;;;;4966230;28;20539;-90
2020/12/29 09:36:02;;;;;;;2.10;0.83;;;5.60;99.90;;;;;;4960496;28;20449;-91
2020/12/29 09:38:29;;;;;;;0.90;0.80;;;5.70;99.90;;;;;;4965399;28;20504;-91
2020/12/29 09:40:55;;;;;;;1.10;0.80;;;5.60;99.90;;;;;;4958379;28;20520;-91
2020/12/29 09:43:22;;;;;;;1.83;0.77;;;5.70;99.90;;;;;;4961061;28;20452;-89
2020/12/29 09:45:49;;;;;;;1.00;0.80;;;5.60;99.90;;;;;;4960921;28;20548;-92
2020/12/29 09:48:17;;;;;;;0.80;0.60;;;5.70;99.90;;;;;;4964328;28;20492;-92
2020/12/29 09:50:44;;;;;;;0.73;0.60;;;5.70;99.90;;;;;;4961892;28;20441;-92
2020/12/29 09:53:10;;;;;;;3.80;1.20;;;5.80;99.90;;;;;;4964917;28;20489;-93
2020/12/29 09:55:38;;;;;;;0.90;0.80;;;5.80;99.90;;;;;;4961364;28;20445;-92
2020/12/29 09:58:04;;;;;;;1.30;0.83;;;5.80;99.90;;;;;;4964653;28;20480;-93
2020/12/29 10:00:30;;;;;;;1.00;0.80;;;5.80;99.90;;;;;;4968695;28;20461;-92
2020/12/29 10:02:58;;;;;;;0.97;0.97;;;5.80;99.90;;;;;;4960801;28;21183;-93
2020/12/29 10:05:25;;;;;;;1.97;1.00;;;5.90;99.90;;;;;;4963342;28;20909;-92
2020/12/29 10:07:51;;;;;;;1.80;1.00;;;6.00;99.90;;;;;;4961408;28;20453;-91
2020/12/29 10:10:17;;;;;;;0.80;0.80;;;6.10;99.90;;;;;;4960089;28;20445;-92
2020/12/29 10:12:44;;;;;;;1.30;0.73;;;6.10;99.90;;;;;;4960386;28;20473;-91
2020/12/29 10:15:10;;;;;;;3.00;1.20;;;6.10;99.90;;;;;;4961709;28;20933;-93
2020/12/29 10:17:36;;;;;;;0.67;0.67;;;6.10;99.90;;;;;;4961810;28;20509;-91
2020/12/29 10:20:03;;;;;;;1.20;0.77;;;6.00;99.90;;;;;;4967268;28;20444;-91
2020/12/29 10:22:29;;;;;;;1.33;0.70;;;6.10;99.90;;;;;;4968326;28;20484;-93
2020/12/29 10:24:56;;;;;;;1.63;1.27;;;6.20;99.90;;;;;;4986583;28;20441;-92
2020/12/29 10:27:23;;;;;;;5.53;1.07;;;6.10;99.90;;;;;;4976836;28;20444;-92
2020/12/29 10:29:50;;;;;;;5.27;1.17;;;6.10;99.90;;;;;;4964793;28;20468;-92
2020/12/29 10:32:20;;;;;;;1.37;1.27;;;6.20;99.90;;;;;;4961876;28;20507;-92
2020/12/29 10:34:46;;;;;;;1.60;0.83;;;6.30;99.90;;;;;;4960925;28;20520;-92
2020/12/29 10:37:13;;;;;;;2.30;1.10;;;6.30;99.90;;;;;;4964209;28;20944;-89
2020/12/29 10:39:40;;;;;;;1.67;1.00;;;6.30;99.90;;;;;;4964078;28;20869;-88
2020/12/29 10:42:06;;;;;;;2.00;1.50;;;6.30;99.90;;;;;;4964803;28;20472;-89
2020/12/29 10:44:32;;;;;;;1.70;0.90;;;6.40;99.90;;;;;;4962529;28;20472;-89
2020/12/29 10:46:58;;;;;;;3.33;1.10;;;6.40;99.90;;;;;;4964912;28;20522;-88
2020/12/29 10:49:25;;;;;;;1.33;0.80;;;6.50;99.90;;;;;;4963324;28;20440;-87
2020/12/29 10:51:51;;;;;;;2.00;1.20;;;6.60;99.90;;;;;;4960481;28;20459;-87
2020/12/29 10:54:18;;;;;;;1.50;0.90;;;7.20;99.90;;;;;;4960978;28;20447;-88
2020/12/29 10:56:44;;;;;;;0.80;0.77;;;7.50;99.90;;;;;;4962478;28;20444;-88
2020/12/29 10:59:11;;;;;;;1.57;0.53;;;7.70;99.90;;;;;;4963160;28;20436;-89
2020/12/29 11:01:37;;;;;;;1.50;0.80;;;7.90;99.90;;;;;;4959952;28;20491;-89
2020/12/29 11:04:04;;;;;;;1.07;0.60;;;7.90;99.90;;;;;;4962398;28;20452;-91
2020/12/29 11:06:30;;;;;;;3.33;0.60;;;7.80;99.90;;;;;;4961526;28;20507;-89
2020/12/29 11:08:56;;;;;;;0.87;0.57;;;8.00;99.90;;;;;;4963500;28;20447;-89
2020/12/29 11:11:23;;;;;;;1.33;0.83;;;8.20;99.90;;;;;;4963047;28;20518;-90
2020/12/29 11:13:50;;;;;;;1.17;0.83;;;8.30;99.90;;;;;;4962895;28;20833;-88
2020/12/29 11:16:17;;;;;;;0.93;0.77;;;8.20;99.90;;;;;;4962924;28;20512;-88
2020/12/29 11:18:44;;;;;;;0.90;0.60;;;8.20;99.90;;;;;;4961838;28;20852;-89
2020/12/29 11:21:11;;;;;;;0.60;0.60;;;8.20;99.90;;;;;;4959896;28;20573;-90
2020/12/29 11:23:37;;;;;;;1.10;0.77;;;8.20;99.90;;;;;;4961901;28;20429;-89
2020/12/29 11:26:03;;;;;;;1.73;1.10;;;8.60;99.90;;;;;;4960001;28;20452;-89
2020/12/29 11:28:30;;;;;;;0.87;0.60;;;9.30;99.90;;;;;;4961487;28;20442;-89
2020/12/29 11:30:57;;;;;;;1.20;0.57;;;11.10;99.90;;;;;;4962611;28;20510;-89
2020/12/29 11:33:23;;;;;;;0.70;0.57;;;12.40;96.30;;;;;;4961505;28;20444;-91
2020/12/29 11:35:50;;;;;;;1.00;0.57;;;14.80;94.90;;;;;;4961541;28;20574;-90
2020/12/29 11:38:17;;;;;;;1.23;0.50;;;17.20;86.90;;;;;;4961553;28;20452;-87
2020/12/29 11:40:43;;;;;;;1.30;0.80;;;18.30;77.90;;;;;;4961542;28;20484;-84
2020/12/29 11:43:09;;;;;;;1.20;0.77;;;17.50;74.70;;;;;;4961470;28;20526;-84
2020/12/29 11:45:36;;;;;;;1.57;0.97;;;18.10;73.60;;;;;;4964652;28;20454;-87
2020/12/29 11:48:03;;;;;;;1.27;0.83;;;18.10;72.00;;;;;;4962844;28;20444;-86
2020/12/29 11:50:30;;;;;;;0.80;0.60;;;18.60;68.60;;;;;;4965580;28;20448;-90
2020/12/29 11:52:56;;;;;;;1.03;0.57;;;18.30;67.10;;;;;;4965865;28;20457;-89
2020/12/29 11:55:22;;;;;;;1.13;0.80;;;16.60;68.20;;;;;;4963456;28;20444;-87
2020/12/29 11:57:48;;;;;;;1.53;0.90;;;16.50;70.70;;;;;;4965418;28;20453;-88
2020/12/29 12:00:15;;;;;;;1.20;0.90;;;15.40;72.80;;;;;;4965136;28;20812;-91
2020/12/29 12:02:42;;;;;;;0.80;0.50;;;14.20;77.20;;;;;;4965195;28;20548;-92
2020/12/29 12:05:08;;;;;;;2.20;1.13;;;13.30;79.60;;;;;;4967197;28;20447;-91
2020/12/29 12:07:34;;;;;;;1.50;0.80;;;12.30;83.30;;;;;;4970253;28;20455;-90
2020/12/29 12:10:01;;;;;;;1.00;0.80;;;11.70;85.70;;;;;;4963144;28;20450;-91
2020/12/29 12:12:28;;;;;;;1.30;0.70;;;11.10;87.00;;;;;;4962858;28;20471;-92
2020/12/29 12:14:54;;;;;;;2.00;0.70;;;11.00;86.90;;;;;;4963244;28;20448;-91
2020/12/29 12:17:20;;;;;;;1.47;0.97;;;10.90;87.30;;;;;;4962428;28;20819;-91
2020/12/29 12:19:47;;;;;;;2.73;0.97;;;10.70;87.60;;;;;;4967316;28;20459;-91
2020/12/29 12:22:13;;;;;;;1.53;0.70;;;10.40;90.00;;;;;;4963823;28;20985;-92
2020/12/29 12:24:39;;;;;;;1.93;0.70;;;10.10;90.60;;;;;;4961594;28;20435;-91
2020/12/29 12:27:06;;;;;;;1.77;0.50;;;9.60;91.20;;;;;;4962220;28;20451;-90
2020/12/29 12:29:32;;;;;;;0.90;0.60;;;9.00;92.00;;;;;;4974454;28;20463;-92
2020/12/29 12:31:59;;;;;;;1.20;0.57;;;8.60;93.00;;;;;;4963627;28;20461;-91
2020/12/29 12:34:25;;;;;;;2.80;0.80;;;8.40;94.30;;;;;;4961855;28;20451;-88
2020/12/29 12:36:53;;;;;;;1.63;0.90;;;8.30;95.10;;;;;;4966619;28;20459;-91
2020/12/29 12:39:19;;;;;;;20.13;18.63;;;8.20;95.80;;;;;;4968004;28;20448;-93
2020/12/29 12:41:45;;;;;;;1.03;0.90;;;8.20;96.30;;;;;;4967112;28;20535;-88
2020/12/29 12:44:12;;;;;;;1.30;0.60;;;8.30;96.50;;;;;;4972659;28;20523;-88
2020/12/29 12:46:40;;;;;;;2.40;1.03;;;8.30;96.20;;;;;;4982185;28;20452;-88
2020/12/29 12:49:06;;;;;;;1.77;1.10;;;8.20;96.50;;;;;;4963874;28;20448;-86
2020/12/29 12:51:32;;;;;;;2.27;0.90;;;8.10;97.00;;;;;;4964296;28;20460;-87
2020/12/29 12:53:59;;;;;;;0.97;0.70;;;8.00;97.30;;;;;;4964289;28;20505;-88
2020/12/29 12:56:28;;;;;;;3.60;1.97;;;8.10;98.00;;;;;;4961864;28;20448;-94
2020/12/29 12:58:54;;;;;;;2.43;1.37;;;8.20;98.30;;;;;;4967326;28;20488;-87
2020/12/29 13:01:21;;;;;;;4.53;1.47;;;8.50;98.30;;;;;;4965405;28;20906;-92
2020/12/29 13:03:47;;;;;;;1.00;0.90;;;8.60;98.00;;;;;;4968423;28;20444;-94
2020/12/29 13:06:22;;;;;;;1.10;0.83;;;9.00;98.00;;;;;;4965152;28;20452;-92
2020/12/29 13:08:48;;;;;;;2.30;1.63;;;8.90;97.40;;;;;;4947132;28;20433;-93
2020/12/29 13:11:16;;;;;;;4.30;1.30;;;8.50;97.70;;;;;;4967641;28;20519;-93
2020/12/29 13:13:42;;;;;;;1.30;1.03;;;8.50;98.20;;;;;;4970555;28;20463;-93
2020/12/29 13:16:08;;;;;;;3.33;2.43;;;8.60;98.70;;;;;;4962112;28;20440;-93
2020/12/29 13:18:35;;;;;;;1.33;0.70;;;8.80;98.90;;;;;;4966508;28;20448;-93
2020/12/29 13:21:01;;;;;;;3.10;2.80;;;8.80;98.50;;;;;;4965356;28;20444;-94
2020/12/29 13:23:27;;;;;;;1.63;1.07;;;8.70;98.70;;;;;;4964998;28;20484;-93
2020/12/29 13:25:53;;;;;;;2.27;1.40;;;8.60;98.90;;;;;;4966399;28;20951;-93
2020/12/29 13:28:20;;;;;;;1.20;0.93;;;8.30;99.20;;;;;;4964737;28;20452;-92
2020/12/29 13:30:46;;;;;;;3.90;1.57;;;8.20;99.50;;;;;;4958510;28;20472;-93
2020/12/29 13:33:13;;;;;;;4.20;1.37;;;8.40;99.80;;;;;;4962056;28;20465;-93
2020/12/29 13:35:39;;;;;;;1.70;0.70;;;8.90;99.60;;;;;;4965206;28;21016;-94
2020/12/29 13:38:05;;;;;;;1.97;1.13;;;9.40;98.60;;;;;;4965560;28;20452;-94
2020/12/29 13:40:31;;;;;;;1.20;0.90;;;9.20;97.90;;;;;;4959807;28;20500;-93
2020/12/29 13:42:58;;;;;;;2.07;0.93;;;8.70;97.90;;;;;;4961435;28;20495;-93
2020/12/29 13:45:25;;;;;;;1.87;1.20;;;8.50;98.80;;;;;;4959113;28;20440;-94
2020/12/29 13:47:52;;;;;;;3.73;1.07;;;8.50;99.60;;;;;;4952089;28;20447;-92
2020/12/29 13:50:18;;;;;;;2.43;1.10;;;8.60;99.70;;;;;;4970865;28;20453;-93
2020/12/29 13:52:44;;;;;;;1.53;1.03;;;8.50;99.40;;;;;;4971458;28;20475;-93
2020/12/29 13:55:10;;;;;;;2.43;1.03;;;8.40;99.70;;;;;;4962177;28;20456;-92